sensor_id;sensor_type;location;lat;lon;timestamp;P1;durP1;ratioP1;P2;durP2;ratioP2
8476;SDS011;4275;42.854;23.222;2024-03-08T00:01:15;12.60;;;12.20;;
8476;SDS011;4275;42.854;23.222;2024-03-08T00:03:44;11.83;;;11.53;;
8476;SDS011;4275;42.854;23.222;2024-03-08T00:06:12;12.00;;;11.60;;
8476;SDS011;4275;42.854;23.222;2024-03-08T00:08:39;11.37;;;11.07;;
8476;SDS011;4275;42.854;23.222;2024-03-08T00:11:06;11.67;;;11.37;;
8476;SDS011;4275;42.854;23.222;2024-03-08T00:13:33;11.63;;;11.33;;
8476;SDS011;4275;42.854;23.222;2024-03-08T00:16:00;12.00;;;11.60;;
8476;SDS011;4275;42.854;23.222;2024-03-08T00:18:27;11.73;;;11.43;;
8476;SDS011;4275;42.854;23.222;2024-03-08T00:20:55;11.20;;;10.90;;
8476;SDS011;4275;42.854;23.222;2024-03-08T00:23:23;11.40;;;11.10;;
8476;SDS011;4275;42.854;23.222;2024-03-08T00:25:50;11.27;;;10.97;;
8476;SDS011;4275;42.854;23.222;2024-03-08T00:28:17;11.77;;;11.43;;
8476;SDS011;4275;42.854;23.222;2024-03-08T00:30:44;11.43;;;11.13;;
8476;SDS011;4275;42.854;23.222;2024-03-08T00:33:11;11.33;;;11.03;;
8476;SDS011;4275;42.854;23.222;2024-03-08T00:35:38;11.20;;;10.90;;
8476;SDS011;4275;42.854;23.222;2024-03-08T00:38:05;11.50;;;11.20;;
8476;SDS011;4275;42.854;23.222;2024-03-08T00:40:34;11.27;;;10.97;;
8476;SDS011;4275;42.854;23.222;2024-03-08T00:43:00;11.40;;;11.10;;
8476;SDS011;4275;42.854;23.222;2024-03-08T00:45:29;11.10;;;10.80;;
8476;SDS011;4275;42.854;23.222;2024-03-08T00:47:56;11.80;;;11.50;;
8476;SDS011;4275;42.854;23.222;2024-03-08T00:50:23;10.70;;;10.40;;
8476;SDS011;4275;42.854;23.222;2024-03-08T00:52:50;11.00;;;10.70;;
8476;SDS011;4275;42.854;23.222;2024-03-08T00:55:17;11.17;;;10.87;;
8476;SDS011;4275;42.854;23.222;2024-03-08T00:57:45;10.87;;;10.57;;
8476;SDS011;4275;42.854;23.222;2024-03-08T01:00:12;11.30;;;11.00;;
8476;SDS011;4275;42.854;23.222;2024-03-08T01:02:39;12.27;;;11.87;;
8476;SDS011;4275;42.854;23.222;2024-03-08T01:05:06;12.60;;;12.20;;
8476;SDS011;4275;42.854;23.222;2024-03-08T01:07:34;12.40;;;12.00;;
8476;SDS011;4275;42.854;23.222;2024-03-08T01:10:01;12.57;;;12.17;;
8476;SDS011;4275;42.854;23.222;2024-03-08T01:12:28;12.30;;;11.90;;
8476;SDS011;4275;42.854;23.222;2024-03-08T01:14:57;12.00;;;11.60;;
8476;SDS011;4275;42.854;23.222;2024-03-08T01:17:24;11.60;;;11.30;;
8476;SDS011;4275;42.854;23.222;2024-03-08T01:19:52;11.43;;;11.13;;
8476;SDS011;4275;42.854;23.222;2024-03-08T01:22:19;11.03;;;10.73;;
8476;SDS011;4275;42.854;23.222;2024-03-08T01:24:47;10.33;;;10.03;;
8476;SDS011;4275;42.854;23.222;2024-03-08T01:27:14;9.00;;;8.80;;
8476;SDS011;4275;42.854;23.222;2024-03-08T01:29:41;10.20;;;9.90;;
8476;SDS011;4275;42.854;23.222;2024-03-08T01:32:10;11.00;;;10.70;;
8476;SDS011;4275;42.854;23.222;2024-03-08T01:34:37;11.20;;;10.90;;
8476;SDS011;4275;42.854;23.222;2024-03-08T01:37:04;11.17;;;10.87;;
8476;SDS011;4275;42.854;23.222;2024-03-08T01:39:31;11.93;;;11.53;;
8476;SDS011;4275;42.854;23.222;2024-03-08T01:41:58;11.40;;;11.10;;
8476;SDS011;4275;42.854;23.222;2024-03-08T01:44:26;10.80;;;10.50;;
8476;SDS011;4275;42.854;23.222;2024-03-08T01:46:52;11.00;;;10.70;;
8476;SDS011;4275;42.854;23.222;2024-03-08T01:49:21;10.90;;;10.60;;
8476;SDS011;4275;42.854;23.222;2024-03-08T01:51:50;11.50;;;11.20;;
8476;SDS011;4275;42.854;23.222;2024-03-08T01:54:18;11.50;;;11.20;;
8476;SDS011;4275;42.854;23.222;2024-03-08T01:56:46;11.47;;;11.17;;
8476;SDS011;4275;42.854;23.222;2024-03-08T01:59:14;12.27;;;11.87;;
8476;SDS011;4275;42.854;23.222;2024-03-08T02:01:42;12.17;;;11.77;;
8476;SDS011;4275;42.854;23.222;2024-03-08T02:04:09;12.60;;;12.20;;
8476;SDS011;4275;42.854;23.222;2024-03-08T02:06:37;14.10;;;13.60;;
8476;SDS011;4275;42.854;23.222;2024-03-08T02:09:05;13.40;;;13.00;;
8476;SDS011;4275;42.854;23.222;2024-03-08T02:11:32;13.03;;;12.63;;
8476;SDS011;4275;42.854;23.222;2024-03-08T02:13:59;12.73;;;12.33;;
8476;SDS011;4275;42.854;23.222;2024-03-08T02:16:27;12.37;;;11.97;;
8476;SDS011;4275;42.854;23.222;2024-03-08T02:18:54;12.00;;;11.60;;
8476;SDS011;4275;42.854;23.222;2024-03-08T02:21:22;11.20;;;10.90;;
8476;SDS011;4275;42.854;23.222;2024-03-08T02:23:50;10.93;;;10.63;;
8476;SDS011;4275;42.854;23.222;2024-03-08T02:26:17;11.00;;;10.70;;
8476;SDS011;4275;42.854;23.222;2024-03-08T02:28:44;12.13;;;11.73;;
8476;SDS011;4275;42.854;23.222;2024-03-08T02:31:11;11.40;;;11.10;;
8476;SDS011;4275;42.854;23.222;2024-03-08T02:33:38;12.27;;;11.87;;
8476;SDS011;4275;42.854;23.222;2024-03-08T02:36:05;12.70;;;12.30;;
8476;SDS011;4275;42.854;23.222;2024-03-08T02:38:34;13.27;;;12.87;;
8476;SDS011;4275;42.854;23.222;2024-03-08T02:41:01;12.70;;;12.30;;
8476;SDS011;4275;42.854;23.222;2024-03-08T02:43:29;12.80;;;12.40;;
8476;SDS011;4275;42.854;23.222;2024-03-08T02:45:55;12.80;;;12.40;;
8476;SDS011;4275;42.854;23.222;2024-03-08T02:48:21;12.40;;;12.00;;
8476;SDS011;4275;42.854;23.222;2024-03-08T02:50:48;11.57;;;11.27;;
8476;SDS011;4275;42.854;23.222;2024-03-08T02:53:16;11.50;;;11.20;;
8476;SDS011;4275;42.854;23.222;2024-03-08T02:55:45;11.00;;;10.70;;
8476;SDS011;4275;42.854;23.222;2024-03-08T02:58:12;11.20;;;10.90;;
8476;SDS011;4275;42.854;23.222;2024-03-08T03:00:39;11.27;;;10.97;;
8476;SDS011;4275;42.854;23.222;2024-03-08T03:03:06;10.77;;;10.47;;
8476;SDS011;4275;42.854;23.222;2024-03-08T03:05:33;10.67;;;10.37;;
8476;SDS011;4275;42.854;23.222;2024-03-08T03:08:00;11.10;;;10.80;;
8476;SDS011;4275;42.854;23.222;2024-03-08T03:10:29;11.50;;;11.20;;
8476;SDS011;4275;42.854;23.222;2024-03-08T03:12:57;11.00;;;10.70;;
8476;SDS011;4275;42.854;23.222;2024-03-08T03:15:24;11.13;;;10.83;;
8476;SDS011;4275;42.854;23.222;2024-03-08T03:17:51;10.90;;;10.60;;
8476;SDS011;4275;42.854;23.222;2024-03-08T03:20:18;10.80;;;10.50;;
8476;SDS011;4275;42.854;23.222;2024-03-08T03:22:57;10.10;;;9.80;;
8476;SDS011;4275;42.854;23.222;2024-03-08T03:25:26;10.03;;;9.73;;
8476;SDS011;4275;42.854;23.222;2024-03-08T03:28:00;10.93;;;10.63;;
8476;SDS011;4275;42.854;23.222;2024-03-08T03:30:28;10.10;;;9.80;;
8476;SDS011;4275;42.854;23.222;2024-03-08T03:32:58;9.90;;;9.60;;
8476;SDS011;4275;42.854;23.222;2024-03-08T03:35:27;9.23;;;9.03;;
8476;SDS011;4275;42.854;23.222;2024-03-08T03:37:54;9.77;;;9.47;;
8476;SDS011;4275;42.854;23.222;2024-03-08T03:40:31;9.50;;;9.20;;
8476;SDS011;4275;42.854;23.222;2024-03-08T03:42:58;10.00;;;9.70;;
8476;SDS011;4275;42.854;23.222;2024-03-08T03:45:28;9.80;;;9.50;;
8476;SDS011;4275;42.854;23.222;2024-03-08T03:47:55;9.13;;;8.93;;
8476;SDS011;4275;42.854;23.222;2024-03-08T03:50:22;9.20;;;9.00;;
8476;SDS011;4275;42.854;23.222;2024-03-08T03:52:49;9.47;;;9.17;;
8476;SDS011;4275;42.854;23.222;2024-03-08T03:55:16;10.27;;;9.97;;
8476;SDS011;4275;42.854;23.222;2024-03-08T03:57:43;9.80;;;9.50;;
8476;SDS011;4275;42.854;23.222;2024-03-08T04:00:13;11.77;;;11.40;;
8476;SDS011;4275;42.854;23.222;2024-03-08T04:02:40;12.53;;;12.13;;
8476;SDS011;4275;42.854;23.222;2024-03-08T04:05:08;11.40;;;11.10;;
8476;SDS011;4275;42.854;23.222;2024-03-08T04:07:36;11.60;;;11.30;;
8476;SDS011;4275;42.854;23.222;2024-03-08T04:10:04;11.40;;;11.10;;
8476;SDS011;4275;42.854;23.222;2024-03-08T04:12:33;11.90;;;11.50;;
8476;SDS011;4275;42.854;23.222;2024-03-08T04:15:00;12.00;;;11.60;;
8476;SDS011;4275;42.854;23.222;2024-03-08T04:17:29;12.53;;;12.13;;
8476;SDS011;4275;42.854;23.222;2024-03-08T04:19:56;12.67;;;12.27;;
8476;SDS011;4275;42.854;23.222;2024-03-08T04:22:23;12.10;;;11.70;;
8476;SDS011;4275;42.854;23.222;2024-03-08T04:24:50;11.50;;;11.20;;
8476;SDS011;4275;42.854;23.222;2024-03-08T04:27:17;10.67;;;10.37;;
8476;SDS011;4275;42.854;23.222;2024-03-08T04:29:44;10.30;;;10.00;;
8476;SDS011;4275;42.854;23.222;2024-03-08T04:35:15;10.50;;;10.20;;
8476;SDS011;4275;42.854;23.222;2024-03-08T04:37:42;10.70;;;10.40;;
8476;SDS011;4275;42.854;23.222;2024-03-08T04:40:10;10.20;;;9.90;;
8476;SDS011;4275;42.854;23.222;2024-03-08T04:42:37;10.10;;;9.80;;
8476;SDS011;4275;42.854;23.222;2024-03-08T04:45:06;9.80;;;9.50;;
8476;SDS011;4275;42.854;23.222;2024-03-08T04:47:36;9.50;;;9.20;;
8476;SDS011;4275;42.854;23.222;2024-03-08T04:50:05;9.33;;;9.07;;
8476;SDS011;4275;42.854;23.222;2024-03-08T04:52:34;10.07;;;9.77;;
8476;SDS011;4275;42.854;23.222;2024-03-08T04:55:01;10.20;;;9.90;;
8476;SDS011;4275;42.854;23.222;2024-03-08T04:57:29;9.50;;;9.20;;
8476;SDS011;4275;42.854;23.222;2024-03-08T04:59:57;8.90;;;8.70;;
8476;SDS011;4275;42.854;23.222;2024-03-08T05:02:24;9.57;;;9.27;;
8476;SDS011;4275;42.854;23.222;2024-03-08T05:04:51;9.20;;;9.00;;
8476;SDS011;4275;42.854;23.222;2024-03-08T05:07:19;8.87;;;8.67;;
8476;SDS011;4275;42.854;23.222;2024-03-08T05:09:46;9.37;;;9.13;;
8476;SDS011;4275;42.854;23.222;2024-03-08T05:12:17;9.57;;;9.27;;
8476;SDS011;4275;42.854;23.222;2024-03-08T05:14:44;10.00;;;9.70;;
8476;SDS011;4275;42.854;23.222;2024-03-08T05:17:11;10.03;;;9.73;;
8476;SDS011;4275;42.854;23.222;2024-03-08T05:19:38;10.33;;;10.03;;
8476;SDS011;4275;42.854;23.222;2024-03-08T05:22:05;9.50;;;9.20;;
8476;SDS011;4275;42.854;23.222;2024-03-08T05:24:33;9.83;;;9.53;;
8476;SDS011;4275;42.854;23.222;2024-03-08T05:27:00;10.10;;;9.80;;
8476;SDS011;4275;42.854;23.222;2024-03-08T05:29:28;10.73;;;10.43;;
8476;SDS011;4275;42.854;23.222;2024-03-08T05:31:55;12.00;;;11.60;;
8476;SDS011;4275;42.854;23.222;2024-03-08T05:34:23;11.50;;;11.20;;
8476;SDS011;4275;42.854;23.222;2024-03-08T05:36:50;10.13;;;9.83;;
8476;SDS011;4275;42.854;23.222;2024-03-08T05:39:17;10.50;;;10.20;;
8476;SDS011;4275;42.854;23.222;2024-03-08T05:41:46;12.70;;;12.30;;
8476;SDS011;4275;42.854;23.222;2024-03-08T05:44:13;12.00;;;11.60;;
8476;SDS011;4275;42.854;23.222;2024-03-08T05:46:42;11.20;;;10.90;;
8476;SDS011;4275;42.854;23.222;2024-03-08T05:49:09;11.07;;;10.77;;
8476;SDS011;4275;42.854;23.222;2024-03-08T05:51:37;10.80;;;10.50;;
8476;SDS011;4275;42.854;23.222;2024-03-08T05:54:05;10.60;;;10.30;;
8476;SDS011;4275;42.854;23.222;2024-03-08T05:56:35;11.00;;;10.70;;
8476;SDS011;4275;42.854;23.222;2024-03-08T05:59:03;10.90;;;10.60;;
8476;SDS011;4275;42.854;23.222;2024-03-08T06:01:30;11.40;;;11.10;;
8476;SDS011;4275;42.854;23.222;2024-03-08T06:03:58;11.70;;;11.30;;
8476;SDS011;4275;42.854;23.222;2024-03-08T06:06:25;11.43;;;11.13;;
8476;SDS011;4275;42.854;23.222;2024-03-08T06:08:52;10.90;;;10.60;;
8476;SDS011;4275;42.854;23.222;2024-03-08T06:11:21;11.80;;;11.40;;
8476;SDS011;4275;42.854;23.222;2024-03-08T06:13:48;12.30;;;11.90;;
8476;SDS011;4275;42.854;23.222;2024-03-08T06:16:17;12.10;;;11.70;;
8476;SDS011;4275;42.854;23.222;2024-03-08T06:18:44;12.10;;;11.70;;
8476;SDS011;4275;42.854;23.222;2024-03-08T06:21:12;12.50;;;12.10;;
8476;SDS011;4275;42.854;23.222;2024-03-08T06:23:39;12.30;;;11.90;;
8476;SDS011;4275;42.854;23.222;2024-03-08T06:29:27;12.70;;;12.30;;
8476;SDS011;4275;42.854;23.222;2024-03-08T06:31:56;12.50;;;12.10;;
8476;SDS011;4275;42.854;23.222;2024-03-08T06:34:23;12.90;;;12.50;;
8476;SDS011;4275;42.854;23.222;2024-03-08T06:36:50;13.50;;;13.00;;
8476;SDS011;4275;42.854;23.222;2024-03-08T06:39:26;14.20;;;13.70;;
8476;SDS011;4275;42.854;23.222;2024-03-08T06:41:55;13.00;;;12.60;;
8476;SDS011;4275;42.854;23.222;2024-03-08T06:44:22;12.50;;;12.10;;
8476;SDS011;4275;42.854;23.222;2024-03-08T06:46:49;13.10;;;12.70;;
8476;SDS011;4275;42.854;23.222;2024-03-08T06:49:17;14.97;;;14.47;;
8476;SDS011;4275;42.854;23.222;2024-03-08T06:51:44;15.43;;;14.83;;
8476;SDS011;4275;42.854;23.222;2024-03-08T06:54:11;14.50;;;13.90;;
8476;SDS011;4275;42.854;23.222;2024-03-08T06:56:38;14.47;;;13.87;;
8476;SDS011;4275;42.854;23.222;2024-03-08T06:59:05;14.43;;;13.83;;
8476;SDS011;4275;42.854;23.222;2024-03-08T07:01:35;15.30;;;14.60;;
8476;SDS011;4275;42.854;23.222;2024-03-08T07:04:03;14.40;;;13.90;;
8476;SDS011;4275;42.854;23.222;2024-03-08T07:06:32;14.37;;;13.77;;
8476;SDS011;4275;42.854;23.222;2024-03-08T07:08:59;14.40;;;13.80;;
8476;SDS011;4275;42.854;23.222;2024-03-08T07:11:27;14.33;;;13.73;;
8476;SDS011;4275;42.854;23.222;2024-03-08T07:13:54;14.47;;;13.87;;
8476;SDS011;4275;42.854;23.222;2024-03-08T07:16:21;17.60;;;16.80;;
8476;SDS011;4275;42.854;23.222;2024-03-08T07:18:49;16.17;;;15.47;;
8476;SDS011;4275;42.854;23.222;2024-03-08T07:21:17;17.23;;;16.33;;
8476;SDS011;4275;42.854;23.222;2024-03-08T07:23:46;15.50;;;14.70;;
8476;SDS011;4275;42.854;23.222;2024-03-08T07:26:28;15.77;;;14.97;;
8476;SDS011;4275;42.854;23.222;2024-03-08T07:28:55;18.60;;;17.70;;
8476;SDS011;4275;42.854;23.222;2024-03-08T07:31:24;18.30;;;17.40;;
8476;SDS011;4275;42.854;23.222;2024-03-08T07:34:00;15.90;;;15.10;;
8476;SDS011;4275;42.854;23.222;2024-03-08T07:36:28;15.63;;;14.93;;
8476;SDS011;4275;42.854;23.222;2024-03-08T07:38:56;17.60;;;16.80;;
8476;SDS011;4275;42.854;23.222;2024-03-08T07:41:23;17.17;;;16.37;;
8476;SDS011;4275;42.854;23.222;2024-03-08T07:43:51;15.83;;;15.10;;
8476;SDS011;4275;42.854;23.222;2024-03-08T07:46:17;17.63;;;16.73;;
8476;SDS011;4275;42.854;23.222;2024-03-08T07:48:44;19.13;;;18.13;;
8476;SDS011;4275;42.854;23.222;2024-03-08T07:51:11;17.07;;;16.17;;
8476;SDS011;4275;42.854;23.222;2024-03-08T07:53:38;18.03;;;16.93;;
8476;SDS011;4275;42.854;23.222;2024-03-08T07:56:07;21.17;;;19.87;;
8476;SDS011;4275;42.854;23.222;2024-03-08T07:58:38;18.30;;;17.20;;
8476;SDS011;4275;42.854;23.222;2024-03-08T08:01:07;19.40;;;18.10;;
8476;SDS011;4275;42.854;23.222;2024-03-08T08:03:34;19.17;;;17.87;;
8476;SDS011;4275;42.854;23.222;2024-03-08T08:06:03;18.77;;;17.57;;
8476;SDS011;4275;42.854;23.222;2024-03-08T08:08:30;17.30;;;16.30;;
8476;SDS011;4275;42.854;23.222;2024-03-08T08:10:57;17.27;;;16.27;;
8476;SDS011;4275;42.854;23.222;2024-03-08T08:13:27;17.40;;;16.30;;
8476;SDS011;4275;42.854;23.222;2024-03-08T08:15:57;19.27;;;17.97;;
8476;SDS011;4275;42.854;23.222;2024-03-08T08:18:24;19.77;;;18.37;;
8476;SDS011;4275;42.854;23.222;2024-03-08T08:20:51;20.50;;;18.90;;
8476;SDS011;4275;42.854;23.222;2024-03-08T08:23:18;20.30;;;18.80;;
8476;SDS011;4275;42.854;23.222;2024-03-08T08:25:45;19.90;;;18.30;;
8476;SDS011;4275;42.854;23.222;2024-03-08T08:28:15;20.37;;;18.77;;
8476;SDS011;4275;42.854;23.222;2024-03-08T08:30:44;20.17;;;18.57;;
8476;SDS011;4275;42.854;23.222;2024-03-08T08:33:11;20.90;;;19.20;;
8476;SDS011;4275;42.854;23.222;2024-03-08T08:35:38;20.40;;;18.80;;
8476;SDS011;4275;42.854;23.222;2024-03-08T08:38:05;21.27;;;19.47;;
8476;SDS011;4275;42.854;23.222;2024-03-08T08:40:33;20.97;;;19.27;;
8476;SDS011;4275;42.854;23.222;2024-03-08T08:43:01;21.30;;;19.50;;
8476;SDS011;4275;42.854;23.222;2024-03-08T08:45:41;21.70;;;19.90;;
8476;SDS011;4275;42.854;23.222;2024-03-08T08:48:09;21.90;;;20.10;;
8476;SDS011;4275;42.854;23.222;2024-03-08T08:50:36;21.90;;;20.13;;
8476;SDS011;4275;42.854;23.222;2024-03-08T08:53:04;21.30;;;19.60;;
8476;SDS011;4275;42.854;23.222;2024-03-08T08:55:32;21.50;;;19.70;;
8476;SDS011;4275;42.854;23.222;2024-03-08T08:58:01;21.80;;;20.00;;
8476;SDS011;4275;42.854;23.222;2024-03-08T09:04:02;22.70;;;20.80;;
8476;SDS011;4275;42.854;23.222;2024-03-08T09:06:29;20.83;;;19.13;;
8476;SDS011;4275;42.854;23.222;2024-03-08T09:08:56;21.10;;;19.40;;
8476;SDS011;4275;42.854;23.222;2024-03-08T09:11:24;22.30;;;20.40;;
8476;SDS011;4275;42.854;23.222;2024-03-08T09:13:51;22.70;;;20.80;;
8476;SDS011;4275;42.854;23.222;2024-03-08T09:16:18;22.50;;;20.60;;
8476;SDS011;4275;42.854;23.222;2024-03-08T09:18:45;23.17;;;21.17;;
8476;SDS011;4275;42.854;23.222;2024-03-08T09:21:15;23.08;;;21.08;;
8476;SDS011;4275;42.854;23.222;2024-03-08T09:23:42;25.40;;;23.20;;
8476;SDS011;4275;42.854;23.222;2024-03-08T09:26:10;22.25;;;20.38;;
8476;SDS011;4275;42.854;23.222;2024-03-08T09:28:38;22.45;;;20.55;;
8476;SDS011;4275;42.854;23.222;2024-03-08T09:31:04;22.30;;;20.40;;
8476;SDS011;4275;42.854;23.222;2024-03-08T09:33:31;22.53;;;20.63;;
8476;SDS011;4275;42.854;23.222;2024-03-08T09:35:59;22.30;;;20.40;;
8476;SDS011;4275;42.854;23.222;2024-03-08T09:38:28;22.63;;;20.73;;
8476;SDS011;4275;42.854;23.222;2024-03-08T09:40:55;23.40;;;21.30;;
8476;SDS011;4275;42.854;23.222;2024-03-08T09:43:22;23.10;;;21.10;;
8476;SDS011;4275;42.854;23.222;2024-03-08T09:45:49;23.47;;;21.47;;
8476;SDS011;4275;42.854;23.222;2024-03-08T09:48:17;23.70;;;21.70;;
8476;SDS011;4275;42.854;23.222;2024-03-08T09:50:45;23.38;;;21.38;;
8476;SDS011;4275;42.854;23.222;2024-03-08T09:53:13;22.88;;;20.92;;
8476;SDS011;4275;42.854;23.222;2024-03-08T09:55:42;24.10;;;22.00;;
8476;SDS011;4275;42.854;23.222;2024-03-08T09:58:11;24.70;;;22.60;;
8476;SDS011;4275;42.854;23.222;2024-03-08T10:01:02;23.87;;;21.77;;
8476;SDS011;4275;42.854;23.222;2024-03-08T10:03:29;23.93;;;21.93;;
8476;SDS011;4275;42.854;23.222;2024-03-08T10:05:57;23.53;;;21.53;;
8476;SDS011;4275;42.854;23.222;2024-03-08T10:08:25;25.20;;;23.00;;
8476;SDS011;4275;42.854;23.222;2024-03-08T10:10:56;24.77;;;22.67;;
8476;SDS011;4275;42.854;23.222;2024-03-08T10:13:23;24.42;;;22.33;;
8476;SDS011;4275;42.854;23.222;2024-03-08T10:15:52;25.17;;;23.00;;
8476;SDS011;4275;42.854;23.222;2024-03-08T10:18:19;25.08;;;22.88;;
8476;SDS011;4275;42.854;23.222;2024-03-08T10:20:46;25.05;;;22.85;;
8476;SDS011;4275;42.854;23.222;2024-03-08T10:23:35;25.45;;;23.25;;
8476;SDS011;4275;42.854;23.222;2024-03-08T10:26:13;25.13;;;22.93;;
8476;SDS011;4275;42.854;23.222;2024-03-08T10:28:41;25.30;;;23.07;;
8476;SDS011;4275;42.854;23.222;2024-03-08T10:31:09;24.55;;;22.35;;
8476;SDS011;4275;42.854;23.222;2024-03-08T10:33:36;24.83;;;22.65;;
8476;SDS011;4275;42.854;23.222;2024-03-08T10:36:05;24.10;;;22.00;;
8476;SDS011;4275;42.854;23.222;2024-03-08T10:38:34;25.05;;;22.85;;
8476;SDS011;4275;42.854;23.222;2024-03-08T10:41:04;24.98;;;22.88;;
8476;SDS011;4275;42.854;23.222;2024-03-08T10:43:36;25.75;;;23.45;;
8476;SDS011;4275;42.854;23.222;2024-03-08T10:46:26;24.35;;;22.25;;
8476;SDS011;4275;42.854;23.222;2024-03-08T10:49:06;24.42;;;22.25;;
8476;SDS011;4275;42.854;23.222;2024-03-08T10:51:38;23.80;;;21.70;;
8476;SDS011;4275;42.854;23.222;2024-03-08T10:54:07;24.25;;;22.05;;
8476;SDS011;4275;42.854;23.222;2024-03-08T10:56:36;24.42;;;22.23;;
8476;SDS011;4275;42.854;23.222;2024-03-08T10:59:06;24.23;;;22.13;;
8476;SDS011;4275;42.854;23.222;2024-03-08T11:01:34;23.85;;;21.85;;
8476;SDS011;4275;42.854;23.222;2024-03-08T11:04:03;23.53;;;21.53;;
8476;SDS011;4275;42.854;23.222;2024-03-08T11:06:41;23.73;;;21.73;;
8476;SDS011;4275;42.854;23.222;2024-03-08T11:09:08;24.00;;;21.90;;
8476;SDS011;4275;42.854;23.222;2024-03-08T11:11:42;24.00;;;21.90;;
8476;SDS011;4275;42.854;23.222;2024-03-08T11:14:42;23.60;;;21.50;;
8476;SDS011;4275;42.854;23.222;2024-03-08T11:17:13;23.33;;;21.33;;
8476;SDS011;4275;42.854;23.222;2024-03-08T11:19:45;23.80;;;21.70;;
8476;SDS011;4275;42.854;23.222;2024-03-08T11:22:20;24.23;;;22.13;;
8476;SDS011;4275;42.854;23.222;2024-03-08T11:24:50;23.80;;;21.70;;
8476;SDS011;4275;42.854;23.222;2024-03-08T11:27:17;23.23;;;21.23;;
8476;SDS011;4275;42.854;23.222;2024-03-08T11:29:48;24.73;;;22.53;;
8476;SDS011;4275;42.854;23.222;2024-03-08T11:32:34;22.98;;;21.00;;
8476;SDS011;4275;42.854;23.222;2024-03-08T11:35:04;23.60;;;21.60;;
8476;SDS011;4275;42.854;23.222;2024-03-08T11:37:34;24.70;;;22.60;;
8476;SDS011;4275;42.854;23.222;2024-03-08T11:40:01;24.43;;;22.33;;
8476;SDS011;4275;42.854;23.222;2024-03-08T11:42:30;24.90;;;22.70;;
8476;SDS011;4275;42.854;23.222;2024-03-08T11:44:58;24.85;;;22.65;;
8476;SDS011;4275;42.854;23.222;2024-03-08T11:47:25;24.27;;;22.25;;
8476;SDS011;4275;42.854;23.222;2024-03-08T11:49:53;25.83;;;23.63;;
8476;SDS011;4275;42.854;23.222;2024-03-08T11:52:20;25.15;;;23.10;;
8476;SDS011;4275;42.854;23.222;2024-03-08T11:54:51;24.70;;;22.60;;
8476;SDS011;4275;42.854;23.222;2024-03-08T11:57:20;24.85;;;22.70;;
8476;SDS011;4275;42.854;23.222;2024-03-08T12:00:14;24.63;;;22.52;;
8476;SDS011;4275;42.854;23.222;2024-03-08T12:03:00;26.45;;;24.25;;
8476;SDS011;4275;42.854;23.222;2024-03-08T12:05:28;25.05;;;22.95;;
8476;SDS011;4275;42.854;23.222;2024-03-08T12:07:56;24.60;;;22.50;;
8476;SDS011;4275;42.854;23.222;2024-03-08T12:10:23;24.70;;;22.70;;
8476;SDS011;4275;42.854;23.222;2024-03-08T12:12:51;24.70;;;22.60;;
8476;SDS011;4275;42.854;23.222;2024-03-08T12:15:21;24.83;;;22.73;;
8476;SDS011;4275;42.854;23.222;2024-03-08T12:17:49;25.30;;;23.20;;
8476;SDS011;4275;42.854;23.222;2024-03-08T12:20:17;24.83;;;22.83;;
8476;SDS011;4275;42.854;23.222;2024-03-08T12:22:48;24.60;;;22.60;;
8476;SDS011;4275;42.854;23.222;2024-03-08T12:25:17;25.03;;;22.93;;
8476;SDS011;4275;42.854;23.222;2024-03-08T12:27:45;24.83;;;22.77;;
8476;SDS011;4275;42.854;23.222;2024-03-08T12:30:19;24.47;;;22.37;;
8476;SDS011;4275;42.854;23.222;2024-03-08T12:32:50;24.08;;;21.98;;
8476;SDS011;4275;42.854;23.222;2024-03-08T12:35:20;25.48;;;23.38;;
8476;SDS011;4275;42.854;23.222;2024-03-08T12:37:48;25.92;;;23.63;;
8476;SDS011;4275;42.854;23.222;2024-03-08T12:40:17;25.15;;;22.95;;
8476;SDS011;4275;42.854;23.222;2024-03-08T12:42:44;27.20;;;24.80;;
8476;SDS011;4275;42.854;23.222;2024-03-08T12:45:12;27.30;;;24.90;;
8476;SDS011;4275;42.854;23.222;2024-03-08T12:47:41;25.33;;;23.08;;
8476;SDS011;4275;42.854;23.222;2024-03-08T12:50:09;25.83;;;23.73;;
8476;SDS011;4275;42.854;23.222;2024-03-08T12:52:37;25.75;;;23.75;;
8476;SDS011;4275;42.854;23.222;2024-03-08T12:55:04;25.83;;;23.63;;
8476;SDS011;4275;42.854;23.222;2024-03-08T12:57:33;25.80;;;23.70;;
8476;SDS011;4275;42.854;23.222;2024-03-08T13:00:01;25.60;;;23.60;;
8476;SDS011;4275;42.854;23.222;2024-03-08T13:02:29;26.00;;;24.00;;
8476;SDS011;4275;42.854;23.222;2024-03-08T13:04:58;25.42;;;23.45;;
8476;SDS011;4275;42.854;23.222;2024-03-08T13:07:26;24.92;;;23.02;;
8476;SDS011;4275;42.854;23.222;2024-03-08T13:09:53;25.02;;;23.13;;
8476;SDS011;4275;42.854;23.222;2024-03-08T13:12:20;25.13;;;23.33;;
8476;SDS011;4275;42.854;23.222;2024-03-08T13:14:48;25.47;;;23.60;;
8476;SDS011;4275;42.854;23.222;2024-03-08T13:17:15;25.53;;;23.63;;
8476;SDS011;4275;42.854;23.222;2024-03-08T13:19:43;24.30;;;22.50;;
8476;SDS011;4275;42.854;23.222;2024-03-08T13:22:11;24.10;;;22.30;;
8476;SDS011;4275;42.854;23.222;2024-03-08T13:24:41;25.10;;;23.27;;
8476;SDS011;4275;42.854;23.222;2024-03-08T13:27:10;24.50;;;22.70;;
8476;SDS011;4275;42.854;23.222;2024-03-08T13:29:45;23.43;;;21.73;;
8476;SDS011;4275;42.854;23.222;2024-03-08T13:32:13;24.20;;;22.40;;
8476;SDS011;4275;42.854;23.222;2024-03-08T13:34:41;24.30;;;22.50;;
8476;SDS011;4275;42.854;23.222;2024-03-08T13:37:08;24.00;;;22.30;;
8476;SDS011;4275;42.854;23.222;2024-03-08T13:39:38;24.33;;;22.52;;
8476;SDS011;4275;42.854;23.222;2024-03-08T13:42:09;24.90;;;23.00;;
8476;SDS011;4275;42.854;23.222;2024-03-08T13:44:38;23.70;;;22.00;;
8476;SDS011;4275;42.854;23.222;2024-03-08T13:47:09;23.93;;;22.23;;
8476;SDS011;4275;42.854;23.222;2024-03-08T13:49:37;23.83;;;22.13;;
8476;SDS011;4275;42.854;23.222;2024-03-08T13:52:04;24.53;;;22.83;;
8476;SDS011;4275;42.854;23.222;2024-03-08T13:54:33;24.20;;;22.60;;
8476;SDS011;4275;42.854;23.222;2024-03-08T13:57:02;23.60;;;21.90;;
8476;SDS011;4275;42.854;23.222;2024-03-08T13:59:30;24.50;;;22.90;;
8476;SDS011;4275;42.854;23.222;2024-03-08T14:01:58;24.13;;;22.40;;
8476;SDS011;4275;42.854;23.222;2024-03-08T14:04:27;23.27;;;21.57;;
8476;SDS011;4275;42.854;23.222;2024-03-08T14:06:54;23.60;;;21.90;;
8476;SDS011;4275;42.854;23.222;2024-03-08T14:09:24;23.27;;;21.57;;
8476;SDS011;4275;42.854;23.222;2024-03-08T14:11:51;22.93;;;21.13;;
8476;SDS011;4275;42.854;23.222;2024-03-08T14:14:21;24.27;;;22.37;;
8476;SDS011;4275;42.854;23.222;2024-03-08T14:16:49;23.37;;;21.57;;
8476;SDS011;4275;42.854;23.222;2024-03-08T14:19:18;23.37;;;21.57;;
8476;SDS011;4275;42.854;23.222;2024-03-08T14:21:45;23.27;;;21.57;;
8476;SDS011;4275;42.854;23.222;2024-03-08T14:24:13;22.43;;;20.73;;
8476;SDS011;4275;42.854;23.222;2024-03-08T14:26:41;23.70;;;22.10;;
8476;SDS011;4275;42.854;23.222;2024-03-08T14:29:08;22.97;;;21.37;;
8476;SDS011;4275;42.854;23.222;2024-03-08T14:31:37;23.17;;;21.57;;
8476;SDS011;4275;42.854;23.222;2024-03-08T14:34:06;24.23;;;22.57;;
8476;SDS011;4275;42.854;23.222;2024-03-08T14:36:32;23.80;;;22.20;;
8476;SDS011;4275;42.854;23.222;2024-03-08T14:39:00;23.57;;;21.87;;
8476;SDS011;4275;42.854;23.222;2024-03-08T14:41:27;24.20;;;22.60;;
8476;SDS011;4275;42.854;23.222;2024-03-08T14:43:55;23.70;;;22.10;;
8476;SDS011;4275;42.854;23.222;2024-03-08T14:46:22;23.07;;;21.47;;
8476;SDS011;4275;42.854;23.222;2024-03-08T14:48:51;23.30;;;21.70;;
8476;SDS011;4275;42.854;23.222;2024-03-08T14:51:17;23.90;;;22.30;;
8476;SDS011;4275;42.854;23.222;2024-03-08T14:53:46;23.50;;;21.90;;